Colorado do Oeste, Brazil
Current Conditions -  °F | °C
As of 6:00 PM on Tuesday 25 Nov 2014 (Local Time) from SBVH Reporting Station
Light Rain Light Rain  
Wind Chill: 72°   Ceiling: Unl
Heat Index: 72°   Visibility: 6mi
Dew Point: 72°   Wind: 9mph
Humidity: 100%   Direction: 290°WNW
Pressure: 29.85"   Gusts: NA
Location:  13.12°S, 60.54°W
Report Text: SBVH 252200Z 29008KT 9999 -RA FEW020 SCT090 22/22 Q1011 RETS
Loading
Personal Weather Stations






























Interactive Weather Map New forecast layout! Learn more

10-Day Weather Forecast

Advertisements
Track Severe Weather on mobile